createdAt,value
2023-05-15T00:02:10.504Z,14.00
2023-05-15T00:04:38.844Z,15.37
2023-05-15T00:07:08.224Z,13.20
2023-05-15T00:09:36.348Z,12.50
2023-05-15T00:12:04.247Z,12.80
2023-05-15T00:14:31.982Z,12.40
2023-05-15T00:16:59.774Z,12.20
2023-05-15T00:19:27.929Z,13.67
2023-05-15T00:21:55.665Z,13.60
2023-05-15T00:24:25.058Z,11.93
2023-05-15T00:26:53.092Z,11.87
2023-05-15T00:29:20.779Z,14.33
2023-05-15T00:31:48.599Z,12.37
2023-05-15T00:34:16.894Z,13.20
2023-05-15T00:36:45.083Z,14.80
2023-05-15T00:39:12.741Z,12.50
2023-05-15T00:41:42.268Z,14.27
2023-05-15T00:44:10.990Z,14.00
2023-05-15T00:46:39.114Z,14.40
2023-05-15T00:49:13.824Z,13.97
2023-05-15T00:51:41.903Z,13.50
2023-05-15T00:54:10.761Z,12.57
2023-05-15T00:56:40.452Z,14.23
2023-05-15T00:59:11.067Z,14.40
2023-05-15T01:01:39.859Z,14.60
2023-05-15T01:04:07.975Z,14.50
2023-05-15T01:06:36.513Z,15.57
2023-05-15T01:09:04.900Z,14.90
2023-05-15T01:11:36.913Z,15.27
2023-05-15T01:14:06.031Z,16.30
2023-05-15T01:16:35.773Z,16.80
2023-05-15T01:19:05.009Z,16.30
2023-05-15T01:21:57.143Z,16.30
2023-05-15T01:24:37.185Z,16.67
2023-05-15T01:27:18.505Z,15.67
2023-05-15T01:29:49.862Z,17.43
2023-05-15T01:32:24.940Z,16.07
2023-05-15T01:34:55.080Z,16.50
2023-05-15T01:37:25.668Z,15.10
2023-05-15T01:39:56.007Z,15.07
2023-05-15T01:42:27.779Z,15.53
2023-05-15T01:44:56.330Z,14.50
2023-05-15T01:47:28.317Z,14.87
2023-05-15T01:49:56.721Z,14.33
2023-05-15T01:52:27.830Z,14.70
2023-05-15T01:54:56.573Z,14.20
2023-05-15T01:57:26.724Z,14.30
2023-05-15T01:59:55.279Z,15.43
2023-05-15T02:02:24.629Z,15.10
2023-05-15T02:04:56.442Z,14.77
2023-05-15T02:07:25.154Z,15.77
2023-05-15T02:09:53.062Z,14.43
2023-05-15T02:12:21.938Z,14.20
2023-05-15T02:14:51.686Z,15.97
2023-05-15T02:17:20.767Z,15.47
2023-05-15T02:19:50.325Z,15.00
2023-05-15T02:22:18.352Z,15.40
2023-05-15T02:24:46.006Z,14.60
2023-05-15T02:27:18.807Z,15.27
2023-05-15T02:29:52.915Z,14.70
2023-05-15T02:32:28.426Z,15.10
2023-05-15T02:35:04.822Z,14.30
2023-05-15T02:37:34.291Z,15.50
2023-05-15T02:40:06.959Z,15.43
2023-05-15T02:42:35.665Z,16.40
2023-05-15T02:45:03.865Z,16.07
2023-05-15T02:47:33.617Z,17.03
2023-05-15T02:50:01.495Z,17.93
2023-05-15T02:52:29.715Z,16.37
2023-05-15T02:54:57.403Z,16.50
2023-05-15T02:57:25.478Z,17.30
2023-05-15T02:59:53.839Z,16.17
2023-05-15T03:02:21.890Z,15.97
2023-05-15T03:04:51.208Z,15.47
2023-05-15T03:07:19.599Z,15.73
2023-05-15T03:09:47.309Z,15.80
2023-05-15T03:12:15.424Z,15.97
2023-05-15T03:14:43.382Z,16.00
2023-05-15T03:17:11.277Z,14.97
2023-05-15T03:19:39.066Z,15.30
2023-05-15T03:22:08.555Z,14.50
2023-05-15T03:24:36.443Z,14.63
2023-05-15T03:27:04.807Z,14.30
2023-05-15T03:29:32.848Z,14.80
2023-05-15T03:32:00.938Z,14.73
2023-05-15T03:34:28.630Z,13.90
2023-05-15T03:36:56.283Z,13.27
2023-05-15T03:39:26.057Z,14.87
2023-05-15T03:41:53.716Z,14.50
2023-05-15T03:44:23.764Z,15.43
2023-05-15T03:46:51.758Z,14.80
2023-05-15T03:49:19.440Z,14.17
2023-05-15T03:51:47.128Z,15.57
2023-05-15T03:54:15.618Z,15.17
2023-05-15T03:56:46.013Z,15.70
2023-05-15T03:59:13.802Z,15.03
2023-05-15T04:01:54.701Z,14.90
2023-05-15T04:04:29.538Z,15.10
2023-05-15T04:06:57.233Z,14.90
2023-05-15T04:09:25.330Z,15.23
2023-05-15T04:11:54.354Z,13.50
2023-05-15T04:14:22.266Z,13.70
2023-05-15T04:16:50.130Z,14.20
2023-05-15T04:19:18.238Z,14.40
2023-05-15T04:21:46.094Z,14.60
2023-05-15T04:24:13.798Z,12.97
2023-05-15T04:26:41.875Z,14.00
2023-05-15T04:29:11.613Z,14.63
2023-05-15T04:31:39.531Z,14.13
2023-05-15T04:34:07.541Z,15.03
2023-05-15T04:36:35.364Z,14.60
2023-05-15T04:39:03.144Z,15.50
2023-05-15T04:41:33.191Z,15.27
2023-05-15T04:44:01.814Z,15.43
2023-05-15T04:46:34.591Z,15.67
2023-05-15T04:49:02.879Z,15.53
2023-05-15T04:51:30.919Z,15.10
2023-05-15T04:53:58.834Z,14.70
2023-05-15T04:56:27.220Z,20.43
2023-05-15T04:58:55.057Z,14.80
2023-05-15T05:01:22.740Z,55.17
2023-05-15T05:03:52.278Z,14.90
2023-05-15T05:06:20.267Z,15.43
2023-05-15T05:08:47.987Z,16.77
2023-05-15T05:11:15.945Z,14.60
2023-05-15T05:13:43.917Z,14.10
2023-05-15T05:16:11.796Z,13.93
2023-05-15T05:18:39.910Z,15.03
2023-05-15T05:21:09.364Z,14.63
2023-05-15T05:23:37.176Z,14.20
2023-05-15T05:26:06.113Z,13.50
2023-05-15T05:28:34.527Z,13.17
2023-05-15T05:31:03.640Z,13.10
2023-05-15T05:33:31.375Z,12.17
2023-05-15T05:35:59.459Z,12.93
2023-05-15T05:38:28.677Z,12.83
2023-05-15T05:40:56.359Z,12.63
2023-05-15T05:43:26.844Z,13.03
2023-05-15T05:45:54.537Z,12.53
2023-05-15T05:48:22.528Z,11.53
2023-05-15T05:50:51.124Z,12.17
2023-05-15T05:53:18.863Z,11.33
2023-05-15T05:55:48.403Z,11.90
2023-05-15T05:58:24.952Z,11.50
2023-05-15T06:00:54.140Z,11.80
2023-05-15T06:03:22.157Z,13.03
2023-05-15T06:05:50.944Z,12.03
2023-05-15T06:08:19.841Z,11.77
2023-05-15T06:10:49.410Z,13.03
2023-05-15T06:13:17.365Z,12.63
2023-05-15T06:15:46.480Z,12.37
2023-05-15T06:18:14.202Z,12.47
2023-05-15T06:20:42.672Z,11.03
2023-05-15T06:23:10.584Z,11.77
2023-05-15T06:25:38.453Z,12.80
2023-05-15T06:28:07.973Z,13.10
2023-05-15T06:30:35.805Z,13.40
2023-05-15T06:33:03.631Z,13.20
2023-05-15T06:35:31.729Z,13.50
2023-05-15T06:37:59.450Z,13.20
2023-05-15T06:40:27.395Z,13.30
2023-05-15T06:42:55.544Z,12.70
2023-05-15T06:45:24.871Z,12.60
2023-05-15T06:47:52.981Z,13.90
2023-05-15T06:50:20.785Z,12.37
2023-05-15T06:52:48.768Z,11.97
2023-05-15T06:55:16.532Z,11.50
2023-05-15T06:57:44.582Z,11.50
2023-05-15T07:00:13.004Z,11.60
2023-05-15T07:02:43.677Z,10.93
2023-05-15T07:05:12.549Z,11.20
2023-05-15T07:07:40.998Z,11.70
2023-05-15T07:10:09.854Z,11.70
2023-05-15T07:12:37.779Z,10.60
2023-05-15T07:15:06.220Z,11.50
2023-05-15T07:17:34.815Z,11.13
2023-05-15T07:20:07.384Z,11.10
2023-05-15T07:22:41.712Z,10.67
2023-05-15T07:25:17.369Z,11.40
2023-05-15T07:27:45.293Z,11.20
2023-05-15T07:30:14.135Z,12.00
2023-05-15T07:32:42.519Z,12.00
2023-05-15T07:35:12.510Z,11.73
2023-05-15T07:37:43.593Z,10.90
2023-05-15T07:40:11.705Z,10.73
2023-05-15T07:42:40.641Z,12.60
2023-05-15T07:45:08.988Z,11.37
2023-05-15T07:47:37.123Z,11.93
2023-05-15T07:50:05.322Z,11.30
2023-05-15T07:52:35.197Z,10.67
2023-05-15T07:55:03.826Z,10.10
2023-05-15T07:57:31.828Z,11.33
2023-05-15T07:59:59.981Z,11.60
2023-05-15T08:02:27.935Z,9.83
2023-05-15T08:04:55.920Z,10.53
2023-05-15T08:07:23.712Z,10.67
2023-05-15T08:09:55.458Z,9.67
2023-05-15T08:12:23.905Z,9.90
2023-05-15T08:14:52.371Z,10.00
2023-05-15T08:17:21.595Z,8.60
2023-05-15T08:19:49.940Z,9.43
2023-05-15T08:22:18.287Z,9.13
2023-05-15T08:24:46.040Z,9.37
2023-05-15T08:27:15.573Z,9.33
2023-05-15T08:29:43.273Z,8.60
2023-05-15T08:32:11.397Z,8.47
2023-05-15T08:34:40.067Z,9.03
2023-05-15T08:37:07.835Z,8.10
2023-05-15T08:39:35.540Z,7.83
2023-05-15T08:42:06.959Z,8.77
2023-05-15T08:44:36.668Z,8.53
2023-05-15T08:47:05.277Z,8.70
2023-05-15T08:49:37.069Z,8.70
2023-05-15T08:52:05.389Z,8.47
2023-05-15T08:54:33.359Z,8.67
2023-05-15T08:57:01.811Z,9.10
2023-05-15T08:59:29.526Z,8.77
2023-05-15T09:01:59.125Z,8.40
2023-05-15T09:04:27.325Z,8.00
2023-05-15T09:06:55.479Z,8.13
2023-05-15T09:09:24.537Z,8.10
2023-05-15T09:11:53.067Z,8.90
2023-05-15T09:14:21.148Z,8.00
2023-05-15T09:16:50.964Z,8.40
2023-05-15T09:19:22.603Z,9.67
2023-05-15T09:21:50.467Z,8.10
2023-05-15T09:24:19.650Z,7.60
2023-05-15T09:26:47.880Z,7.50
2023-05-15T09:29:19.120Z,8.07
2023-05-15T09:31:48.379Z,8.43
2023-05-15T09:34:16.581Z,7.40
2023-05-15T09:36:45.905Z,7.60
2023-05-15T09:39:13.740Z,7.70
2023-05-15T09:41:42.802Z,7.70
2023-05-15T09:44:21.463Z,7.50
2023-05-15T09:46:50.039Z,7.80
2023-05-15T09:49:18.356Z,8.40
2023-05-15T09:51:50.473Z,8.20
2023-05-15T09:54:18.986Z,7.07
2023-05-15T09:56:47.238Z,7.57
2023-05-15T09:59:16.142Z,7.97
2023-05-15T10:01:45.033Z,7.90
2023-05-15T10:04:13.676Z,8.20
2023-05-15T10:06:43.166Z,8.10
2023-05-15T10:09:12.968Z,7.60
2023-05-15T10:11:41.404Z,8.40
2023-05-15T10:14:10.527Z,8.20
2023-05-15T10:16:38.743Z,8.37
2023-05-15T10:19:07.600Z,8.37
2023-05-15T10:21:36.627Z,8.17
2023-05-15T10:24:05.635Z,8.40
2023-05-15T10:26:37.435Z,8.30
2023-05-15T10:29:06.369Z,9.43
2023-05-15T10:31:34.720Z,9.23
2023-05-15T10:34:04.464Z,7.63
2023-05-15T10:36:33.116Z,8.00
2023-05-15T10:39:01.726Z,7.83
2023-05-15T10:41:30.312Z,7.33
2023-05-15T10:44:01.605Z,8.27
2023-05-15T10:46:30.666Z,7.60
2023-05-15T10:48:58.561Z,8.37
2023-05-15T10:51:27.472Z,7.63
2023-05-15T10:53:56.394Z,7.83
2023-05-15T10:56:27.408Z,8.90
2023-05-15T10:58:56.147Z,8.20
2023-05-15T11:01:28.923Z,7.20
2023-05-15T11:04:06.762Z,7.77
2023-05-15T11:06:34.957Z,7.20
2023-05-15T11:09:21.309Z,7.27
2023-05-15T11:11:56.870Z,7.57
2023-05-15T11:14:26.344Z,8.27
2023-05-15T11:16:58.959Z,9.07
2023-05-15T11:19:32.972Z,10.47
2023-05-15T11:22:01.922Z,8.70
2023-05-15T11:24:30.668Z,9.47
2023-05-15T11:27:01.387Z,9.10
2023-05-15T11:29:29.195Z,14.50
2023-05-15T11:31:56.929Z,11.37
2023-05-15T11:34:32.491Z,11.13
2023-05-15T11:37:00.867Z,7.80
2023-05-15T11:39:28.975Z,6.70
2023-05-15T11:41:59.121Z,8.60
2023-05-15T11:44:28.539Z,10.03
2023-05-15T11:46:56.384Z,5.40
2023-05-15T11:49:26.376Z,4.73
2023-05-15T11:51:56.060Z,7.07
2023-05-15T11:54:25.295Z,4.57
2023-05-15T11:56:58.051Z,4.80
2023-05-15T11:59:27.709Z,5.77
2023-05-15T12:01:55.430Z,6.43
2023-05-15T12:04:24.562Z,5.80
2023-05-15T12:06:52.728Z,4.57
2023-05-15T12:09:27.412Z,4.00
2023-05-15T12:11:56.366Z,5.30
2023-05-15T12:14:30.321Z,3.93
2023-05-15T12:17:02.736Z,4.03
2023-05-15T12:19:33.727Z,3.70
2023-05-15T12:22:01.551Z,4.27
2023-05-15T12:24:30.891Z,3.57
2023-05-15T12:26:59.200Z,3.13
2023-05-15T12:29:27.421Z,3.70
2023-05-15T12:31:55.220Z,3.40
2023-05-15T12:34:23.175Z,7.23
2023-05-15T12:36:50.899Z,2.80
2023-05-15T12:39:18.583Z,4.13
2023-05-15T12:41:49.899Z,5.47
2023-05-15T12:44:18.313Z,4.37
2023-05-15T12:46:46.573Z,3.43
2023-05-15T12:49:14.437Z,4.93
2023-05-15T12:51:45.526Z,3.60
2023-05-15T12:54:17.966Z,5.70
2023-05-15T12:56:47.816Z,3.50
2023-05-15T12:59:15.730Z,3.00
2023-05-15T13:01:43.794Z,3.33
2023-05-15T13:04:11.943Z,3.87
2023-05-15T13:06:46.803Z,3.80
2023-05-15T13:09:15.508Z,3.10
2023-05-15T13:11:45.043Z,4.30
2023-05-15T13:14:17.603Z,3.80
2023-05-15T13:16:46.807Z,3.40
2023-05-15T13:19:15.861Z,3.40
2023-05-15T13:21:43.832Z,3.70
2023-05-15T13:24:11.816Z,3.20
2023-05-15T13:26:39.703Z,3.00
2023-05-15T13:29:07.524Z,4.10
2023-05-15T13:31:37.296Z,4.50
2023-05-15T13:34:05.159Z,3.93
2023-05-15T13:36:33.417Z,5.00
2023-05-15T13:39:01.135Z,4.80
2023-05-15T13:41:29.277Z,4.07
2023-05-15T13:43:56.955Z,4.27
2023-05-15T13:46:24.998Z,3.77
2023-05-15T13:48:54.111Z,3.37
2023-05-15T13:51:22.220Z,3.70
2023-05-15T13:53:49.943Z,3.10
2023-05-15T13:56:17.709Z,3.30
2023-05-15T13:58:45.563Z,3.03
2023-05-15T14:01:14.171Z,3.10
2023-05-15T14:03:41.976Z,3.53
2023-05-15T14:06:11.404Z,3.30
2023-05-15T14:08:39.216Z,4.27
2023-05-15T14:11:06.886Z,3.73
2023-05-15T14:13:35.042Z,3.90
2023-05-15T14:16:03.149Z,3.30
2023-05-15T14:18:32.166Z,3.93
2023-05-15T14:21:00.097Z,3.43
2023-05-15T14:23:31.629Z,4.00
2023-05-15T14:25:59.544Z,4.00
2023-05-15T14:28:27.203Z,4.00
2023-05-15T14:30:55.140Z,4.07
2023-05-15T14:33:23.345Z,3.90
2023-05-15T14:35:51.140Z,4.50
2023-05-15T14:38:18.858Z,6.17
2023-05-15T14:40:48.049Z,4.90
2023-05-15T14:43:15.749Z,5.03
2023-05-15T14:45:43.610Z,5.93
2023-05-15T14:48:11.873Z,5.60
2023-05-15T14:50:39.660Z,4.67
2023-05-15T14:53:07.341Z,7.07
2023-05-15T14:55:35.426Z,4.90
2023-05-15T14:58:04.760Z,5.03
2023-05-15T15:00:33.093Z,4.30
2023-05-15T15:03:02.548Z,4.37
2023-05-15T15:05:30.388Z,3.83
2023-05-15T15:08:00.377Z,3.97
2023-05-15T15:10:28.579Z,3.40
2023-05-15T15:12:56.659Z,4.30
2023-05-15T15:15:26.002Z,3.80
2023-05-15T15:17:54.221Z,3.00
2023-05-15T15:20:22.223Z,3.70
2023-05-15T15:22:50.278Z,5.63
2023-05-15T15:25:18.348Z,3.50
2023-05-15T15:27:46.254Z,3.40
2023-05-15T15:30:14.134Z,3.40
2023-05-15T15:32:44.385Z,3.63
2023-05-15T15:35:12.615Z,3.77
2023-05-15T15:37:40.475Z,4.10
2023-05-15T15:40:09.294Z,3.50
2023-05-15T15:42:36.972Z,3.03
2023-05-15T15:45:05.405Z,3.20
2023-05-15T15:47:33.578Z,3.23
2023-05-15T15:50:03.098Z,4.03
2023-05-15T15:52:31.463Z,4.50
2023-05-15T15:54:59.508Z,3.70
2023-05-15T15:57:28.912Z,4.20
2023-05-15T15:59:56.947Z,5.17
2023-05-15T16:02:25.131Z,4.80
2023-05-15T16:04:53.728Z,6.90
2023-05-15T16:07:23.123Z,5.03
2023-05-15T16:10:00.409Z,7.33
2023-05-15T16:12:38.455Z,3.70
2023-05-15T16:15:20.932Z,5.07
2023-05-15T16:17:51.607Z,4.40
2023-05-15T16:20:19.759Z,4.20
2023-05-15T16:22:49.326Z,3.80
2023-05-15T16:25:17.167Z,5.43
2023-05-15T16:27:45.017Z,5.67
2023-05-15T16:30:14.082Z,5.83
2023-05-15T16:32:42.149Z,6.00
2023-05-15T16:35:10.657Z,5.30
2023-05-15T16:37:38.887Z,6.00
2023-05-15T16:40:09.293Z,7.57
2023-05-15T16:42:37.982Z,6.10
2023-05-15T16:45:06.659Z,4.90
2023-05-15T16:47:35.074Z,4.70
2023-05-15T16:50:03.685Z,4.17
2023-05-15T16:52:31.778Z,4.70
2023-05-15T16:54:59.678Z,4.53
2023-05-15T16:57:29.090Z,4.10
2023-05-15T16:59:57.084Z,4.77
2023-05-15T17:02:25.078Z,4.00
2023-05-15T17:04:53.734Z,3.63
2023-05-15T17:07:21.489Z,3.53
2023-05-15T17:09:49.538Z,3.57
2023-05-15T17:12:19.226Z,3.90
2023-05-15T17:14:48.450Z,3.80
2023-05-15T17:17:16.768Z,4.00
2023-05-15T17:19:45.319Z,3.80
2023-05-15T17:22:13.161Z,4.00
2023-05-15T17:24:50.830Z,4.03
2023-05-15T17:27:20.537Z,4.03
2023-05-15T17:29:49.980Z,3.60
2023-05-15T17:32:18.829Z,4.30
2023-05-15T17:34:47.577Z,4.73
2023-05-15T17:37:15.606Z,4.20
2023-05-15T17:39:43.381Z,3.53
2023-05-15T17:42:11.487Z,3.60
2023-05-15T17:44:39.317Z,4.40
2023-05-15T17:47:10.103Z,3.93
2023-05-15T17:49:38.533Z,4.57
2023-05-15T17:52:06.557Z,4.13
2023-05-15T17:54:34.633Z,4.10
2023-05-15T17:57:02.434Z,4.40
2023-05-15T17:59:31.248Z,4.37
2023-05-15T18:02:00.433Z,3.70
2023-05-15T18:04:29.691Z,4.80
2023-05-15T18:06:57.842Z,4.27
2023-05-15T18:09:26.850Z,4.10
2023-05-15T18:11:54.763Z,4.20
2023-05-15T18:14:22.592Z,4.30
2023-05-15T18:16:51.792Z,4.00
2023-05-15T18:19:19.680Z,4.63
2023-05-15T18:21:48.776Z,4.63
2023-05-15T18:24:16.765Z,4.77
2023-05-15T18:26:47.475Z,4.63
2023-05-15T18:29:15.094Z,4.90
2023-05-15T18:31:44.447Z,4.87
2023-05-15T18:34:12.485Z,5.33
2023-05-15T18:36:40.451Z,5.40
2023-05-15T18:39:09.537Z,5.00
2023-05-15T18:41:38.076Z,4.80
2023-05-15T18:44:06.115Z,5.40
2023-05-15T18:46:34.117Z,5.10
2023-05-15T18:49:02.076Z,4.10
2023-05-15T18:51:29.788Z,4.83
2023-05-15T18:53:57.801Z,4.87
2023-05-15T18:56:26.863Z,5.10
2023-05-15T18:58:55.180Z,5.40
2023-05-15T19:01:23.387Z,5.00
2023-05-15T19:03:52.068Z,5.47
2023-05-15T19:06:20.353Z,5.27
2023-05-15T19:08:49.791Z,5.40
2023-05-15T19:11:18.169Z,5.47
2023-05-15T19:13:47.888Z,5.30
2023-05-15T19:16:15.680Z,7.10
2023-05-15T19:18:43.548Z,5.80
2023-05-15T19:21:11.592Z,6.07
2023-05-15T19:23:39.638Z,6.00
2023-05-15T19:26:07.420Z,6.27
2023-05-15T19:28:35.650Z,7.83
2023-05-15T19:31:05.370Z,6.93
2023-05-15T19:33:33.825Z,7.20
2023-05-15T19:36:01.884Z,6.83
2023-05-15T19:38:30.502Z,6.37
2023-05-15T19:40:58.309Z,6.07
2023-05-15T19:43:27.647Z,6.40
2023-05-15T19:45:55.742Z,5.50
2023-05-15T19:48:25.246Z,6.00
2023-05-15T19:50:53.269Z,5.73
2023-05-15T19:53:21.697Z,5.80
2023-05-15T19:55:50.123Z,5.63
2023-05-15T19:58:19.156Z,5.40
2023-05-15T20:00:50.375Z,5.73
2023-05-15T20:03:18.187Z,5.80
2023-05-15T20:05:47.745Z,12.43
2023-05-15T20:11:05.904Z,5.80
2023-05-15T20:13:34.370Z,5.80
2023-05-15T20:16:04.435Z,6.20
2023-05-15T20:18:34.588Z,6.03
2023-05-15T20:21:04.502Z,6.27
2023-05-15T20:23:32.348Z,6.47
2023-05-15T20:26:00.421Z,5.80
2023-05-15T20:28:28.983Z,5.97
2023-05-15T20:30:57.650Z,5.70
2023-05-15T20:33:25.495Z,6.00
2023-05-15T20:35:54.290Z,6.80
2023-05-15T20:38:25.309Z,7.70
2023-05-15T20:40:53.666Z,6.40
2023-05-15T20:43:21.553Z,6.20
2023-05-15T20:45:49.422Z,6.30
2023-05-15T20:48:17.434Z,6.83
2023-05-15T20:50:45.487Z,6.47
2023-05-15T20:53:13.517Z,6.93
2023-05-15T20:55:42.878Z,6.80
2023-05-15T20:58:12.238Z,7.13
2023-05-15T21:00:40.532Z,7.00
2023-05-15T21:03:09.356Z,6.93
2023-05-15T21:05:37.472Z,6.83
2023-05-15T21:08:05.644Z,6.70
2023-05-15T21:10:33.949Z,6.70
2023-05-15T21:13:03.712Z,7.37
2023-05-15T21:15:31.856Z,7.63
2023-05-15T21:17:59.795Z,7.30
2023-05-15T21:20:28.200Z,7.10
2023-05-15T21:22:56.208Z,7.33
2023-05-15T21:25:24.049Z,7.67
2023-05-15T21:27:51.746Z,6.87
2023-05-15T21:30:21.362Z,6.80
2023-05-15T21:32:49.312Z,6.90
2023-05-15T21:35:17.487Z,7.60
2023-05-15T21:37:45.593Z,7.37
2023-05-15T21:40:14.418Z,7.50
2023-05-15T21:42:43.052Z,7.00
2023-05-15T21:45:11.444Z,7.43
2023-05-15T21:47:40.850Z,7.57
2023-05-15T21:50:09.671Z,7.57
2023-05-15T21:52:37.688Z,7.60
2023-05-15T21:55:05.709Z,7.20
2023-05-15T21:57:33.960Z,7.23
2023-05-15T22:00:01.679Z,7.60
2023-05-15T22:02:29.818Z,7.43
2023-05-15T22:04:59.230Z,7.43
2023-05-15T22:07:27.063Z,6.97
2023-05-15T22:09:54.761Z,7.90
2023-05-15T22:12:22.752Z,8.10
2023-05-15T22:14:59.060Z,7.57
2023-05-15T22:17:30.655Z,8.00
2023-05-15T22:20:07.214Z,7.20
2023-05-15T22:22:36.129Z,7.70
2023-05-15T22:25:03.847Z,8.23
2023-05-15T22:27:31.796Z,8.07
2023-05-15T22:30:00.033Z,8.50
2023-05-15T22:32:27.827Z,8.53
2023-05-15T22:34:55.887Z,8.30
2023-05-15T22:37:25.318Z,8.23
2023-05-15T22:39:53.252Z,8.80
2023-05-15T22:42:21.257Z,9.07
2023-05-15T22:44:49.616Z,9.00
2023-05-15T22:47:17.429Z,8.97
2023-05-15T22:49:45.413Z,9.43
2023-05-15T22:52:14.082Z,9.83
2023-05-15T22:54:43.414Z,9.17
2023-05-15T22:57:11.302Z,9.00
2023-05-15T22:59:39.622Z,9.40
2023-05-15T23:02:07.495Z,9.43
2023-05-15T23:04:35.323Z,9.13
2023-05-15T23:07:03.302Z,9.50
2023-05-15T23:09:31.004Z,9.37
2023-05-15T23:12:00.579Z,9.50
2023-05-15T23:14:28.548Z,9.40
2023-05-15T23:16:56.277Z,10.27
2023-05-15T23:19:24.059Z,10.07
2023-05-15T23:21:52.218Z,11.07
2023-05-15T23:24:20.314Z,11.13
2023-05-15T23:26:48.006Z,10.77
2023-05-15T23:29:17.029Z,10.60
2023-05-15T23:31:44.903Z,10.07
2023-05-15T23:34:12.809Z,12.13
2023-05-15T23:36:41.321Z,11.40
2023-05-15T23:39:09.079Z,11.40
2023-05-15T23:41:37.667Z,10.17
2023-05-15T23:44:05.946Z,10.50
2023-05-15T23:46:35.439Z,10.27
2023-05-15T23:49:03.517Z,10.50
2023-05-15T23:51:32.374Z,11.10
2023-05-15T23:54:00.132Z,11.77
2023-05-15T23:56:27.821Z,10.93
2023-05-15T23:58:55.572Z,11.77
